createdAt,value
2022-11-17T04:35:34.434Z,2.02
2022-11-17T04:40:36.140Z,2.02
2022-11-17T04:45:37.877Z,3.16
2022-11-17T04:50:39.548Z,3.16
2022-11-17T04:55:41.367Z,4.03
2022-11-17T05:00:43.456Z,4.03
2022-11-17T05:05:46.617Z,2.16
2022-11-17T05:10:48.594Z,2.16
2022-11-17T05:15:50.305Z,2.42
2022-11-17T05:20:51.959Z,2.42
2022-11-17T05:25:53.709Z,0
2022-11-17T05:30:55.518Z,0
2022-11-17T05:35:57.334Z,1.44
2022-11-17T05:40:59.807Z,1.44
2022-11-17T05:46:01.445Z,0
2022-11-17T05:51:03.524Z,0
2022-11-17T05:56:10.252Z,1.68
2022-11-17T06:01:13.575Z,1.27
2022-11-17T06:06:15.714Z,1.27
2022-11-17T06:11:17.479Z,1.87
2022-11-17T06:16:21.826Z,1.87
2022-11-17T06:21:23.631Z,2.16
2022-11-17T06:26:25.407Z,2.16
2022-11-17T06:31:27.943Z,0
2022-11-17T06:36:29.886Z,0
2022-11-17T06:41:31.635Z,2.56
2022-11-17T06:46:33.392Z,2.56
2022-11-17T06:51:35.206Z,2.79
2022-11-17T06:56:37.004Z,2.79
2022-11-17T07:01:38.765Z,2.2
2022-11-17T07:06:40.489Z,2.2
2022-11-17T07:11:42.248Z,2.97
2022-11-17T07:16:43.960Z,3.44
2022-11-17T07:21:45.652Z,3.44
2022-11-17T07:26:47.324Z,3.09
2022-11-17T07:31:49.033Z,3.09
2022-11-17T07:36:50.667Z,5.32
2022-11-17T07:41:52.286Z,5.32
2022-11-17T07:46:54.590Z,1.35
2022-11-17T07:51:56.252Z,1.35
2022-11-17T07:56:57.945Z,3.74
2022-11-17T08:01:59.779Z,3.74
2022-11-17T08:07:01.780Z,2.69
2022-11-17T08:18:32.606Z,2.69
2022-11-17T08:23:34.794Z,1.68
2022-11-17T08:28:39.158Z,1.68
2022-11-17T08:33:41.254Z,1.43
2022-11-17T08:38:43.117Z,1.43
2022-11-17T08:43:44.871Z,3.13
2022-11-17T08:48:47.512Z,3.13
2022-11-17T08:53:51.642Z,5.56
2022-11-17T08:58:53.468Z,5.56
2022-11-17T09:03:55.196Z,2.61
2022-11-17T09:08:58.629Z,2.61
2022-11-17T09:14:00.668Z,0.75
2022-11-17T09:19:02.557Z,0.75
2022-11-17T09:24:04.785Z,3.97
2022-11-17T09:29:07.194Z,3.97
2022-11-17T09:34:09.302Z,6.3
2022-11-17T09:39:11.178Z,0
2022-11-17T09:44:19.057Z,0
2022-11-17T09:54:30.402Z,3.52
2022-11-17T09:59:33.633Z,4.1
2022-11-17T10:04:35.491Z,4.1
2022-11-17T10:09:41.449Z,3.57
2022-11-17T10:14:43.461Z,3.57
2022-11-17T10:19:45.466Z,1.63
2022-11-17T10:24:49.043Z,1.63
2022-11-17T10:29:56.880Z,2.74
2022-11-17T10:40:26.831Z,0
2022-11-17T10:45:28.871Z,2.33
2022-11-17T10:50:30.884Z,2.33
2022-11-17T10:55:33.709Z,1.89
2022-11-17T11:00:36.370Z,1.89
2022-11-17T11:05:38.252Z,2.64
2022-11-17T11:10:40.101Z,2.64
2022-11-17T11:15:42.313Z,0
2022-11-17T11:20:47.493Z,0
2022-11-17T11:25:51.807Z,1.99
2022-11-17T11:30:58.358Z,1.99
2022-11-17T11:46:17.976Z,3.18
2022-11-17T11:51:22.707Z,3.18
2022-11-17T11:56:27.706Z,2.2
2022-11-17T12:01:32.224Z,5.9
2022-11-17T12:06:38.085Z,5.9
2022-11-17T12:11:40.588Z,0
2022-11-17T12:16:42.433Z,0
2022-11-17T12:21:44.527Z,0
2022-11-17T12:26:46.495Z,0
2022-11-17T12:31:49.602Z,2.14
2022-11-17T12:42:05.548Z,1.16
2022-11-17T12:47:10.297Z,1.16
2022-11-17T12:52:16.919Z,1.11
2022-11-17T12:57:23.700Z,1.11
2022-11-17T13:02:33.033Z,3.47
2022-11-17T13:07:35.123Z,3.47
2022-11-17T13:12:36.907Z,2.77
2022-11-17T13:17:39.539Z,1.27
2022-11-17T13:22:43.142Z,1.27
2022-11-17T13:32:51.153Z,2.85
2022-11-17T13:38:02.091Z,3.05
2022-11-17T13:43:04.376Z,3.05
2022-11-17T13:48:06.437Z,2.68
2022-11-17T13:58:28.305Z,1.34
2022-11-17T14:03:33.015Z,1.34
2022-11-17T14:08:35.902Z,0
2022-11-17T14:13:38.801Z,0
2022-11-17T14:18:40.773Z,0
2022-11-17T14:23:43.334Z,0
2022-11-17T14:28:45.259Z,0
2022-11-17T14:33:47.088Z,0
2022-11-17T14:38:49.227Z,0
2022-11-17T14:43:50.967Z,0
2022-11-17T14:48:53.479Z,0
2022-11-17T14:53:55.327Z,0
2022-11-17T14:58:57.879Z,0
2022-11-17T15:09:07.640Z,0
2022-11-17T15:14:10.777Z,0
2022-11-17T15:19:12.836Z,0
2022-11-17T15:24:16.253Z,0
2022-11-17T15:29:19.680Z,0
2022-11-17T15:34:21.899Z,0
2022-11-17T15:39:23.705Z,0
2022-11-17T15:44:25.554Z,0
2022-11-17T15:54:33.122Z,0
2022-11-17T15:59:34.907Z,0
2022-11-17T16:04:36.791Z,0
2022-11-17T16:09:38.927Z,0
2022-11-17T16:14:40.713Z,0
2022-11-17T16:19:42.641Z,0
2022-11-17T16:24:44.468Z,0
2022-11-17T16:29:46.246Z,0
2022-11-17T16:34:48.134Z,0
2022-11-17T16:39:50.079Z,1.28
2022-11-17T16:44:52.193Z,1.28
2022-11-17T16:49:54.224Z,0
2022-11-17T17:00:04.327Z,0
2022-11-17T17:05:07.414Z,0
2022-11-17T17:10:09.658Z,0
2022-11-17T17:15:14.354Z,0
2022-11-17T17:20:17.861Z,0
2022-11-17T17:25:20.388Z,2.34
2022-11-17T17:30:24.669Z,2.34
2022-11-17T17:35:27.835Z,1.14
2022-11-17T17:40:30.401Z,1.14
2022-11-17T17:45:32.835Z,1.26
2022-11-17T17:50:35.174Z,1.26
2022-11-17T17:55:37.789Z,0
2022-11-17T18:00:40.346Z,0
2022-11-17T18:05:42.872Z,1.55
2022-11-17T18:10:46.779Z,1.55
2022-11-17T18:15:49.448Z,0
2022-11-17T18:25:57.944Z,1.79
2022-11-17T18:31:04.291Z,1.45
2022-11-17T18:36:09.608Z,1.45
2022-11-17T18:41:13.885Z,1.49
2022-11-17T18:46:17.962Z,1.49
2022-11-17T18:51:22.921Z,0.29
2022-11-17T18:56:27.761Z,0.29
2022-11-17T19:01:32.021Z,0.56
2022-11-17T19:06:37.770Z,0.56
2022-11-17T19:11:41.129Z,1.88
2022-11-17T19:16:48.103Z,1.88
2022-11-17T19:21:51.411Z,1.35
2022-11-17T19:26:54.740Z,0
2022-11-17T19:31:56.969Z,0
2022-11-17T19:37:01.111Z,1.94
2022-11-17T19:42:07.324Z,1.94
2022-11-17T19:47:11.354Z,0
2022-11-17T19:52:14.883Z,0
2022-11-17T19:57:18.400Z,0
2022-11-17T20:02:21.418Z,0
2022-11-17T20:07:25.973Z,0
2022-11-17T20:12:29.059Z,0
2022-11-17T20:17:32.407Z,0.35
2022-11-17T20:22:37.553Z,0.35
2022-11-17T20:27:40.191Z,0
2022-11-17T20:32:44.134Z,0
2022-11-17T20:37:46.731Z,0
2022-11-17T20:42:50.219Z,0
2022-11-17T20:47:53.388Z,0
2022-11-17T20:52:56.157Z,0
2022-11-17T20:58:02.521Z,0
2022-11-17T21:03:05.266Z,0
2022-11-17T21:08:07.823Z,0
2022-11-17T21:13:12.077Z,0
2022-11-17T21:18:14.657Z,0
2022-11-17T21:23:16.470Z,0
2022-11-17T21:28:18.308Z,0
2022-11-17T21:33:20.094Z,0
2022-11-17T21:38:22.029Z,0
2022-11-17T21:43:23.878Z,0
2022-11-17T21:48:25.724Z,0
2022-11-17T21:53:27.747Z,0
2022-11-17T21:58:29.652Z,0
2022-11-17T22:03:31.436Z,0
2022-11-17T22:08:34.301Z,0
2022-11-17T22:13:36.058Z,0
2022-11-17T22:18:38.118Z,0
2022-11-17T22:23:39.920Z,0
2022-11-17T22:28:41.687Z,0
2022-11-17T22:33:45.485Z,0
2022-11-17T22:38:49.538Z,0
